Time;durP1;ratioP1;P1;durP2;ratioP2;P2;SDS_P1;SDS_P2;PMS_P1;PMS_P2;Temp;Humidity;BMP_temperature;BMP_pressure;BME280_temperature;BME280_humidity;BME280_pressure;Samples;Min_cycle;Max_cycle;Signal;HPM_P1;HPM_P2
2022/12/23 00:01:24;;;;;;;8.43;1.27;;;;;;;-3.29;87.52;98868.25;4983061;27;20039;-82
2022/12/23 00:03:59;;;;;;;3.42;1.30;;;;;;;-3.40;87.92;98788.88;4977075;27;20088;-82
2022/12/23 00:06:30;;;;;;;1.88;1.10;;;;;;;-3.42;88.44;98789.69;4967440;27;20339;-82
2022/12/23 00:09:01;;;;;;;3.47;1.20;;;;;;;-3.37;88.19;98839.13;4980300;27;20059;-82
2022/12/23 00:11:34;;;;;;;3.50;1.30;;;;;;;-3.34;87.66;98813.66;4973626;27;20106;-81
2022/12/23 00:16:52;;;;;;;4.35;1.77;;;;;;;-3.30;88.20;98784.75;4977055;27;20075;-81
2022/12/23 00:19:22;;;;;;;3.55;1.33;;;;;;;-3.31;87.27;98777.94;4987683;27;20051;-80
2022/12/23 00:21:53;;;;;;;7.55;1.50;;;;;;;-3.29;87.99;98801.81;4981681;27;20059;-80
2022/12/23 00:24:23;;;;;;;3.45;0.90;;;;;;;-3.27;87.14;98797.56;4976443;27;20035;-81
2022/12/23 00:26:56;;;;;;;2.38;1.08;;;;;;;-3.51;86.14;98773.38;4978301;27;20055;-80
2022/12/23 00:29:27;;;;;;;1.48;0.90;;;;;;;-3.21;86.17;98800.25;4968271;27;20066;-81
2022/12/23 00:31:57;;;;;;;3.22;1.15;;;;;;;-3.21;85.90;98802.78;4969617;27;20324;-78
2022/12/23 00:44:02;;;;;;;5.28;1.40;;;;;;;-3.22;85.93;98698.91;4795498;28;20281;-81
2022/12/23 00:46:34;;;;;;;1.75;1.15;;;;;;;-3.21;86.64;98773.84;4808114;29;20095;-82
2022/12/23 00:52:11;;;;;;;5.95;1.52;;;;;;;-3.17;86.30;98776.47;4781185;29;20121;-81
2022/12/23 00:54:44;;;;;;;5.00;1.17;;;;;;;-3.11;86.27;98766.31;4799598;29;20046;-80
2022/12/23 00:57:17;;;;;;;0.80;0.80;;;;;;;-3.11;86.38;98755.25;4810164;29;20047;-80
2022/12/23 00:59:51;;;;;;;1.80;1.08;;;;;;;-3.12;86.72;98764.63;4807934;29;20060;-80
2022/12/23 01:08:11;;;;;;;1.80;1.00;;;;;;;-3.05;85.58;98725.50;4790035;29;20063;-80
2022/12/23 01:10:43;;;;;;;1.50;1.15;;;;;;;-3.82;85.22;98589.97;4813600;29;20055;-80
2022/12/23 01:13:16;;;;;;;3.78;1.00;;;;;;;-2.97;85.35;98717.97;4814483;29;20119;-80
2022/12/23 01:15:52;;;;;;;5.88;1.50;;;;;;;-2.94;85.90;98737.59;4930635;28;20050;-81
2022/12/23 01:18:27;;;;;;;1.27;1.00;;;;;;;-3.03;85.42;98698.28;4949017;28;20114;-80
2022/12/23 01:21:06;;;;;;;1.08;1.00;;;;;;;-2.85;85.69;98742.81;4952171;28;20203;-81
2022/12/23 01:23:38;;;;;;;1.95;0.82;;;;;;;-2.87;85.47;98730.03;4944349;28;20071;-81
2022/12/23 01:26:13;;;;;;;1.35;0.88;;;;;;;-2.97;85.99;98711.97;4937004;28;20039;-81
2022/12/23 01:28:46;;;;;;;2.60;1.17;;;;;;;-2.92;86.25;98733.34;4956625;28;20035;-81
2022/12/23 01:31:21;;;;;;;1.35;1.10;;;;;;;-2.96;86.26;98685.59;4957417;28;20057;-81
2022/12/23 01:33:54;;;;;;;5.82;2.08;;;;;;;-2.90;87.02;98698.44;4961635;28;20043;-80
2022/12/23 01:36:31;;;;;;;4.13;1.38;;;;;;;-2.98;86.28;98669.38;4951226;28;20119;-80
2022/12/23 01:39:06;;;;;;;5.32;1.98;;;;;;;-2.85;86.70;98681.47;4958341;28;20067;-80
2022/12/23 01:44:54;;;;;;;8.73;2.80;;;;;;;-2.78;85.44;98667.91;4939450;28;20059;-80
2022/12/23 01:47:40;;;;;;;4.43;1.58;;;;;;;-3.06;85.56;98606.28;4946780;28;20086;-80
2022/12/23 01:53:15;;;;;;;11.00;2.80;;;;;;;-2.85;86.26;98625.22;4921465;28;20079;-81
2022/12/23 01:55:55;;;;;;;4.60;1.50;;;;;;;-2.66;84.61;98662.94;4942969;28;20056;-81
2022/12/23 01:58:35;;;;;;;5.22;1.70;;;;;;;-2.84;84.27;98616.75;4939168;28;20062;-80
2022/12/23 02:04:11;;;;;;;1.48;1.02;;;;;;;-2.46;82.76;98649.50;4935736;28;20044;-80
2022/12/23 02:09:43;;;;;;;6.43;1.15;;;;;;;-2.62;83.35;98626.34;4931733;28;20087;-81
2022/12/23 02:12:43;;;;;;;2.50;0.88;;;;;;;-2.56;84.65;98617.00;4955668;28;20062;-80
2022/12/23 02:18:54;;;;;;;0.93;0.85;;;;;;;-3.22;84.83;98527.75;4933965;28;20056;-80
2022/12/23 02:22:01;;;;;;;7.28;1.13;;;;;;;-2.64;83.55;98579.44;4937344;28;20060;-81
2022/12/23 02:25:06;;;;;;;1.33;1.02;;;;;;;-2.51;82.25;98612.81;4930611;28;20067;-80
2022/12/23 02:27:57;;;;;;;1.60;0.80;;;;;;;-2.57;81.28;98599.94;4916370;28;20328;-81
2022/12/23 02:30:47;;;;;;;4.78;1.10;;;;;;;-2.64;82.76;98622.91;4915506;28;20053;-82
2022/12/23 02:33:33;;;;;;;1.42;1.10;;;;;;;-3.15;82.96;98569.53;4934373;28;20065;-81
2022/12/23 02:36:19;;;;;;;5.63;1.00;;;;;;;-3.33;84.06;98519.09;4931921;28;20306;-81
2022/12/23 02:39:03;;;;;;;6.80;0.95;;;;;;;-2.90;83.97;98611.53;4927031;28;20056;-81
2022/12/23 02:41:44;;;;;;;3.08;1.10;;;;;;;-2.71;84.36;98587.88;4937610;28;20039;-83
2022/12/23 02:44:30;;;;;;;3.58;1.40;;;;;;;-2.68;84.84;98595.59;4927773;28;21480;-82
2022/12/23 02:47:12;;;;;;;1.17;0.80;;;;;;;-2.66;84.54;98560.66;4927717;28;20128;-82
2022/12/23 02:49:49;;;;;;;0.80;0.80;;;;;;;-2.66;84.37;98576.00;4939228;28;20367;-82
2022/12/23 02:52:27;;;;;;;4.82;1.10;;;;;;;-2.65;85.05;98569.19;4938852;28;20047;-82
2022/12/23 02:55:04;;;;;;;0.80;0.80;;;;;;;-2.66;85.33;98555.56;4947684;28;20053;-82
2022/12/23 02:57:39;;;;;;;0.85;0.85;;;;;;;-2.64;85.49;98564.09;4955155;28;20082;-82
2022/12/23 03:05:54;;;;;;;1.00;0.73;;;;;;;-2.70;83.98;98518.00;4940144;28;20063;-81
2022/12/23 03:08:29;;;;;;;1.30;0.85;;;;;;;-2.73;83.33;98507.75;4954403;28;20055;-81
2022/12/23 03:11:06;;;;;;;0.88;0.80;;;;;;;-2.88;82.84;98482.06;4953931;28;20254;-81
2022/12/23 03:13:55;;;;;;;2.90;0.70;;;;;;;-2.77;81.39;98506.03;4966451;28;20063;-81
2022/12/23 03:16:35;;;;;;;1.27;0.77;;;;;;;-2.58;80.75;98516.41;4942068;28;20048;-81
2022/12/23 03:19:13;;;;;;;;;;;;;;;-2.61;79.31;98525.75;4957574;28;20056;-81
2022/12/23 03:21:49;;;;;;;0.80;0.80;;;;;;;-2.63;80.76;98508.69;4955728;28;19923;-80
2022/12/23 03:24:32;;;;;;;1.90;0.90;;;;;;;-2.72;81.21;98504.38;4958844;28;20363;-82
2022/12/23 03:27:10;;;;;;;0.82;0.80;;;;;;;-2.69;81.37;98504.41;4946281;28;20096;-81
2022/12/23 03:29:48;;;;;;;3.67;0.90;;;;;;;-2.76;82.52;98497.53;4945167;28;20105;-81
2022/12/23 03:32:24;;;;;;;0.90;0.73;;;;;;;-2.74;83.17;98490.72;4952472;28;20052;-81
2022/12/23 03:35:00;;;;;;;3.10;1.05;;;;;;;-2.75;83.65;98483.88;4956500;28;20036;-81
2022/12/23 03:37:37;;;;;;;1.50;0.95;;;;;;;-3.21;84.46;98406.00;4957985;28;20062;-81
2022/12/23 03:40:16;;;;;;;2.15;0.70;;;;;;;-2.84;84.47;98489.78;4949788;28;20076;-82
2022/12/23 03:42:56;;;;;;;1.73;1.17;;;;;;;-2.99;83.81;98447.91;4949405;28;20099;-80
2022/12/23 03:45:33;;;;;;;1.98;0.98;;;;;;;-2.80;84.01;98465.09;4959476;28;24564;-82
2022/12/23 03:48:15;;;;;;;1.58;0.80;;;;;;;-3.03;84.30;98458.09;4952030;28;20056;-82
2022/12/23 03:50:53;;;;;;;0.80;0.80;;;;;;;-2.84;84.67;98464.22;4963346;28;22199;-81
2022/12/23 03:53:31;;;;;;;3.70;1.17;;;;;;;-2.83;84.64;98485.53;4950379;28;20047;-82
2022/12/23 03:56:06;;;;;;;0.80;0.80;;;;;;;-2.91;85.04;98471.84;4949904;28;20063;-80
2022/12/23 03:58:44;;;;;;;2.50;1.10;;;;;;;-2.90;85.12;98453.09;4957837;28;20365;-81
2022/12/23 04:01:25;;;;;;;2.38;0.90;;;;;;;-2.90;85.86;98445.41;4962531;28;20234;-79
2022/12/23 04:04:05;;;;;;;0.70;0.70;;;;;;;-2.93;85.78;98455.63;4946984;28;20076;-82
2022/12/23 04:06:47;;;;;;;1.48;0.80;;;;;;;-2.95;85.91;98449.63;4969625;28;20071;-80
2022/12/23 04:09:23;;;;;;;1.08;0.80;;;;;;;-2.87;85.67;98451.44;4955896;28;20051;-82
2022/12/23 04:11:56;;;;;;;0.82;0.82;;;;;;;-3.19;85.54;98397.50;4952175;28;20055;-80
2022/12/23 04:14:31;;;;;;;1.15;0.90;;;;;;;-2.87;85.76;98442.88;4948962;28;20108;-81
2022/12/23 04:17:04;;;;;;;1.98;0.80;;;;;;;-2.87;86.15;98432.66;4952670;28;20055;-82
2022/12/23 04:19:36;;;;;;;1.48;0.80;;;;;;;-2.91;85.73;98461.59;4947744;28;20062;-81
2022/12/23 04:22:11;;;;;;;0.88;0.88;;;;;;;-2.92;86.90;98444.53;4961981;28;20377;-82
2022/12/23 04:24:44;;;;;;;0.80;0.80;;;;;;;-2.92;87.53;98444.53;4958311;28;20236;-82
2022/12/23 04:27:17;;;;;;;2.10;1.00;;;;;;;-2.92;87.41;98442.00;4950422;28;20059;-82
2022/12/23 04:29:49;;;;;;;1.33;1.17;;;;;;;-3.04;87.73;98435.94;4957604;28;20057;-83
2022/12/23 04:32:22;;;;;;;2.30;1.00;;;;;;;-2.87;87.97;98442.88;4969474;28;20063;-86
2022/12/23 04:34:54;;;;;;;1.02;0.80;;;;;;;-2.88;87.37;98452.25;4963625;28;20077;-80
2022/12/23 04:37:30;;;;;;;0.70;0.70;;;;;;;-2.85;87.38;98461.66;4964776;28;20047;-84
2022/12/23 04:40:03;;;;;;;1.10;0.80;;;;;;;-2.82;87.47;98454.03;4956544;28;20051;-81
2022/12/23 04:42:36;;;;;;;1.08;0.93;;;;;;;-2.80;86.99;98449.75;4976491;28;20056;-83
2022/12/23 04:45:10;;;;;;;1.88;0.90;;;;;;;-2.80;87.06;98459.13;4954783;28;20052;-87
2022/12/23 04:47:44;;;;;;;1.63;1.10;;;;;;;-2.85;86.31;98441.19;4961770;28;20271;-86
2022/12/23 04:50:17;;;;;;;0.80;0.80;;;;;;;-3.03;86.40;98441.91;4946507;28;20066;-83
2022/12/23 04:52:51;;;;;;;1.45;0.88;;;;;;;-2.80;85.12;98444.66;4941430;28;20045;-83
2022/12/23 04:55:25;;;;;;;0.77;0.77;;;;;;;-2.65;85.05;98460.09;4956656;28;20300;-81
2022/12/23 04:57:58;;;;;;;1.42;1.10;;;;;;;-2.71;85.25;98451.53;4953533;28;20040;-83
2022/12/23 05:00:30;;;;;;;3.28;1.50;;;;;;;-2.64;86.07;98446.50;4945081;28;20078;-81
2022/12/23 05:03:09;;;;;;;1.20;0.90;;;;;;;-2.62;85.57;98455.03;4962578;28;20362;-83
2022/12/23 05:05:45;;;;;;;1.95;1.10;;;;;;;-2.62;85.18;98449.91;4962219;28;20047;-83
2022/12/23 05:08:19;;;;;;;1.10;0.95;;;;;;;-2.69;85.68;98448.16;4950425;28;20039;-84
2022/12/23 05:10:52;;;;;;;0.70;0.70;;;;;;;-2.89;85.83;98439.47;4948870;28;20047;-84
2022/12/23 05:13:24;;;;;;;1.00;1.00;;;;;;;-2.68;86.18;98460.09;4955368;28;20388;-81
2022/12/23 05:15:57;;;;;;;1.55;0.77;;;;;;;-2.69;85.86;98468.59;4960666;28;20052;-81
2022/12/23 05:18:31;;;;;;;0.82;0.82;;;;;;;-2.65;85.85;98460.09;4946308;28;20355;-81
2022/12/23 05:21:04;;;;;;;1.52;0.90;;;;;;;-2.67;86.92;98451.59;4966939;28;20105;-81
2022/12/23 05:23:39;;;;;;;0.80;0.80;;;;;;;-2.76;87.10;98443.84;4940658;28;20040;-80
2022/12/23 05:26:13;;;;;;;0.80;0.80;;;;;;;-2.70;86.49;98431.09;4915233;28;20047;-80
2022/12/23 05:28:48;;;;;;;0.80;0.70;;;;;;;-2.63;86.46;98447.34;4924693;28;20272;-81
2022/12/23 05:31:21;;;;;;;1.38;0.80;;;;;;;-2.81;87.39;98427.63;4901628;28;20049;-81
2022/12/23 05:36:42;;;;;;;1.13;0.90;;;;;;;-2.70;87.68;98456.66;4901702;28;20083;-81
2022/12/23 05:44:58;;;;;;;0.80;0.80;;;;;;;-2.77;87.39;98434.47;4908428;28;20045;-81
2022/12/23 05:47:33;;;;;;;1.02;0.90;;;;;;;-3.06;87.81;98401.84;4905150;28;20049;-82
2022/12/23 05:50:12;;;;;;;1.65;1.05;;;;;;;-2.75;87.60;98448.09;4902440;28;20057;-82
2022/12/23 05:52:46;;;;;;;2.47;1.00;;;;;;;-3.01;87.65;98404.44;4925801;28;20040;-81
2022/12/23 05:55:20;;;;;;;3.92;1.25;;;;;;;-2.74;88.10;98448.97;4922845;28;20057;-80
2022/12/23 05:57:53;;;;;;;1.40;0.98;;;;;;;-2.85;88.88;98462.50;4910802;28;20076;-82
2022/12/23 06:00:28;;;;;;;1.50;0.95;;;;;;;-2.80;89.14;98459.97;4917552;28;20040;-82
2022/12/23 06:03:04;;;;;;;0.90;0.90;;;;;;;-2.79;88.25;98479.59;4916606;28;20040;-82
2022/12/23 06:08:32;;;;;;;1.58;1.00;;;;;;;-2.78;88.16;98478.75;4895331;28;20378;-81
2022/12/23 06:11:11;;;;;;;1.88;0.90;;;;;;;-2.76;89.10;98463.44;4921825;28;20344;-82
2022/12/23 06:13:45;;;;;;;1.23;1.00;;;;;;;-2.78;88.77;98467.69;4908303;28;20352;-82
2022/12/23 06:16:20;;;;;;;2.45;1.05;;;;;;;-2.80;88.56;98454.88;4930839;28;20330;-80
2022/12/23 06:18:58;;;;;;;3.70;0.90;;;;;;;-2.79;88.86;98456.59;4915629;28;20052;-80
2022/12/23 06:21:30;;;;;;;3.67;1.00;;;;;;;-2.83;90.00;98459.97;4914349;28;20335;-81
2022/12/23 06:24:04;;;;;;;0.80;0.80;;;;;;;-3.09;90.15;98427.38;4919373;28;20064;-82
2022/12/23 06:26:38;;;;;;;2.33;0.90;;;;;;;-2.89;90.88;98485.50;4921189;28;20056;-83
2022/12/23 06:29:12;;;;;;;6.38;1.67;;;;;;;-2.90;91.24;98468.41;4911458;28;20091;-80
2022/12/23 06:31:45;;;;;;;1.20;1.10;;;;;;;-2.93;92.23;98470.97;4911005;28;20108;-81
2022/12/23 06:34:18;;;;;;;1.35;0.93;;;;;;;-2.98;93.17;98482.84;4922575;28;20052;-82
2022/12/23 06:36:50;;;;;;;4.63;0.90;;;;;;;-3.14;93.31;98464.81;4909177;28;21233;-82
2022/12/23 06:39:23;;;;;;;3.88;1.10;;;;;;;-3.03;93.63;98463.19;4920686;28;20074;-83
2022/12/23 06:41:57;;;;;;;5.15;1.17;;;;;;;-3.16;93.55;98453.72;4922676;28;20049;-82
2022/12/23 06:44:30;;;;;;;1.95;1.02;;;;;;;-3.05;94.63;98469.13;4917599;28;20049;-81
2022/12/23 06:47:05;;;;;;;3.65;1.48;;;;;;;-3.11;94.34;98469.94;4914170;28;20059;-83
2022/12/23 06:49:41;;;;;;;3.80;1.30;;;;;;;-3.09;95.81;98483.59;4902173;28;20093;-83
2022/12/23 06:52:19;;;;;;;6.05;1.40;;;;;;;-3.16;96.15;98465.66;4923218;28;25086;-82
2022/12/23 06:54:58;;;;;;;2.28;1.20;;;;;;;-3.31;96.70;98417.81;4926863;28;20097;-83
2022/12/23 06:57:35;;;;;;;2.63;1.05;;;;;;;-4.22;97.22;98288.44;4913907;28;20040;-83
2022/12/23 07:00:29;;;;;;;5.05;1.33;;;;;;;-3.17;97.51;98449.47;4919295;28;20055;-83
2022/12/23 07:03:18;;;;;;;3.72;1.30;;;;;;;-3.32;97.96;98419.53;4869630;28;20042;-83
2022/12/23 07:05:49;;;;;;;2.78;1.00;;;;;;;-3.21;98.61;98442.59;4867593;28;20088;-82
2022/12/23 07:08:20;;;;;;;2.25;1.00;;;;;;;-3.39;98.26;98402.44;4881519;28;20060;-83
2022/12/23 07:10:51;;;;;;;4.03;1.13;;;;;;;-3.17;97.47;98434.13;4889770;28;20048;-83
2022/12/23 07:13:23;;;;;;;0.80;0.80;;;;;;;-3.14;97.54;98438.41;4896583;28;20049;-85
2022/12/23 07:15:54;;;;;;;6.93;1.10;;;;;;;-3.14;97.72;98438.41;4882932;28;20042;-83
2022/12/23 07:18:43;;;;;;;1.17;1.00;;;;;;;-3.13;97.39;98438.41;4878078;28;20346;-81
2022/12/23 07:21:31;;;;;;;4.82;0.90;;;;;;;-3.12;98.04;98431.59;4885309;28;20072;-82
2022/12/23 07:24:02;;;;;;;4.72;1.35;;;;;;;-3.17;98.63;98413.69;4875593;28;20412;-84
2022/12/23 07:26:35;;;;;;;6.53;1.00;;;;;;;-3.15;98.42;98417.09;4888892;28;20404;-83
2022/12/23 07:29:25;;;;;;;4.63;1.88;;;;;;;-3.13;98.22;98425.63;4884657;28;20046;-84
2022/12/23 07:31:56;;;;;;;3.58;1.10;;;;;;;-3.19;97.74;98414.53;4873591;28;20042;-85
2022/12/23 07:34:28;;;;;;;2.50;1.08;;;;;;;-3.08;97.54;98429.09;4870040;28;20059;-84
2022/12/23 07:36:58;;;;;;;2.80;1.05;;;;;;;-3.07;97.96;98429.94;4884533;28;20047;-83
2022/12/23 07:39:32;;;;;;;1.15;0.90;;;;;;;-3.04;95.69;98456.38;4886860;28;20351;-83
2022/12/23 07:45:37;;;;;;;1.30;0.90;;;;;;;-2.78;92.51;98445.53;4808593;28;20245;-82
2022/12/23 07:48:10;;;;;;;2.53;1.00;;;;;;;-2.69;91.77;98453.28;4880563;28;20046;-82
2022/12/23 07:50:41;;;;;;;1.23;0.90;;;;;;;-2.75;91.97;98455.75;4882985;28;20042;-81
2022/12/23 07:53:12;;;;;;;5.65;1.33;;;;;;;-3.04;92.68;98405.28;4897255;28;20111;-82
2022/12/23 07:55:43;;;;;;;2.45;1.23;;;;;;;-2.78;94.15;98453.19;4920958;28;20371;-82
2022/12/23 07:58:13;;;;;;;3.30;1.02;;;;;;;-2.79;94.09;98461.72;4919036;28;20052;-82
2022/12/23 08:00:46;;;;;;;1.33;1.15;;;;;;;-2.80;94.15;98454.03;4925578;28;20064;-83
2022/12/23 08:03:16;;;;;;;1.63;1.05;;;;;;;-2.79;94.74;98454.03;4908708;28;20343;-83
2022/12/23 08:05:47;;;;;;;4.15;1.02;;;;;;;-2.79;94.75;98460.88;4920594;28;20264;-82
2022/12/23 08:08:18;;;;;;;2.97;1.10;;;;;;;-2.77;94.79;98454.91;4932280;28;20093;-82
2022/12/23 08:10:49;;;;;;;5.28;1.08;;;;;;;-2.75;93.95;98452.34;4928907;28;20974;-80
2022/12/23 08:13:20;;;;;;;2.15;1.00;;;;;;;-2.87;94.45;98432.66;4928393;28;21383;-82
2022/12/23 08:15:56;;;;;;;1.85;1.08;;;;;;;-3.56;94.29;98302.69;4922058;28;20124;-81
2022/12/23 08:18:30;;;;;;;1.02;0.90;;;;;;;-2.74;94.58;98452.38;4911829;28;20101;-81
2022/12/23 08:21:24;;;;;;;0.93;0.80;;;;;;;-2.70;94.45;98456.66;4909138;28;20268;-80
2022/12/23 08:23:55;;;;;;;1.50;0.80;;;;;;;-2.82;95.08;98443.81;4923304;28;20036;-82
2022/12/23 08:26:26;;;;;;;4.25;0.93;;;;;;;-2.75;95.06;98447.25;4923176;28;20082;-81
2022/12/23 08:28:57;;;;;;;1.00;0.80;;;;;;;-2.71;95.17;98454.09;4917214;28;20044;-82
2022/12/23 08:31:31;;;;;;;1.70;0.75;;;;;;;-2.74;95.01;98444.72;4919495;28;20160;-82
2022/12/23 08:34:03;;;;;;;1.67;0.80;;;;;;;-2.69;95.84;98453.28;4923610;28;20071;-80
2022/12/23 08:36:56;;;;;;;2.15;0.90;;;;;;;-2.72;96.50;98437.91;4911816;28;20104;-81
2022/12/23 08:39:36;;;;;;;1.27;0.90;;;;;;;-2.76;96.75;98451.50;4914394;28;20119;-81
2022/12/23 08:42:07;;;;;;;4.90;1.08;;;;;;;-3.01;97.18;98403.59;4918323;28;20344;-81
2022/12/23 08:45:14;;;;;;;2.33;0.95;;;;;;;-2.77;97.82;98438.69;4897593;28;20186;-81
2022/12/23 08:47:52;;;;;;;4.38;1.10;;;;;;;-2.82;98.66;98431.03;4916079;28;20048;-81
2022/12/23 08:50:24;;;;;;;3.17;1.23;;;;;;;-2.86;99.77;98424.16;4924937;28;20044;-82
2022/12/23 08:52:59;;;;;;;1.65;0.95;;;;;;;-3.03;100.00;98414.66;4915464;28;20043;-82
2022/12/23 08:55:30;;;;;;;3.60;1.00;;;;;;;-3.10;100.00;98400.13;4914088;28;20036;-82
2022/12/23 08:58:05;;;;;;;5.65;1.15;;;;;;;-2.93;100.00;98427.50;4925413;28;20240;-83
2022/12/23 09:00:37;;;;;;;1.88;1.30;;;;;;;-2.94;100.00;98441.16;4927654;28;20147;-83
2022/12/23 09:03:28;;;;;;;4.03;0.90;;;;;;;-2.95;100.00;98424.09;4916726;28;20299;-82
2022/12/23 09:05:59;;;;;;;2.67;0.95;;;;;;;-3.16;100.00;98400.06;4914927;28;20226;-82
2022/12/23 09:08:30;;;;;;;1.67;1.10;;;;;;;-3.06;100.00;98395.91;4922545;28;20056;-83
2022/12/23 09:11:03;;;;;;;2.70;0.90;;;;;;;-2.96;100.00;98427.50;4920302;28;20055;-83
2022/12/23 09:13:36;;;;;;;2.50;1.30;;;;;;;-2.93;100.00;98427.50;4916807;28;96628;-83
2022/12/23 09:16:08;;;;;;;2.85;1.23;;;;;;;-2.93;100.00;98412.19;4926408;28;20063;-83
2022/12/23 09:18:41;;;;;;;1.13;1.02;;;;;;;-2.94;100.00;98410.47;4917616;28;20080;-84
2022/12/23 09:21:33;;;;;;;4.57;1.25;;;;;;;-2.95;100.00;98431.75;4922671;28;20056;-84
2022/12/23 09:24:04;;;;;;;2.15;0.82;;;;;;;-2.96;100.00;98422.38;4904475;28;20108;-84
2022/12/23 09:26:56;;;;;;;6.60;1.30;;;;;;;-2.96;100.00;98419.84;4919702;28;20123;-84
2022/12/23 09:29:27;;;;;;;1.73;1.13;;;;;;;-2.94;100.00;98420.69;4907561;28;20463;-85
2022/12/23 09:31:58;;;;;;;5.60;1.10;;;;;;;-3.04;100.00;98404.44;4919721;28;20062;-85
2022/12/23 09:34:56;;;;;;;3.50;1.08;;;;;;;-2.95;100.00;98416.41;4910114;28;20059;-85
2022/12/23 09:37:27;;;;;;;9.32;1.35;;;;;;;-2.91;100.00;98426.69;4919728;28;20051;-85
2022/12/23 09:40:15;;;;;;;2.17;0.90;;;;;;;-2.86;100.00;98419.06;4927060;28;20058;-83
2022/12/23 09:43:05;;;;;;;2.05;0.80;;;;;;;-2.90;100.00;98414.75;4921102;28;20133;-84
2022/12/23 09:46:04;;;;;;;5.85;1.30;;;;;;;-2.76;100.00;98456.63;4925231;28;20059;-84
2022/12/23 09:48:39;;;;;;;4.68;1.40;;;;;;;-2.69;100.00;98432.81;4909863;28;20033;-84
2022/12/23 09:51:54;;;;;;;4.72;1.27;;;;;;;-2.89;100.00;98408.81;4914490;28;20046;-84
2022/12/23 09:54:27;;;;;;;3.25;1.33;;;;;;;-2.57;99.75;98400.50;4899965;28;20056;-85
2022/12/23 09:57:01;;;;;;;7.88;1.88;;;;;;;-2.56;99.86;98438.00;4909729;28;20045;-83
2022/12/23 10:00:02;;;;;;;4.03;1.40;;;;;;;-2.61;99.61;98415.81;4930253;28;20040;-83
2022/12/23 10:02:45;;;;;;;7.45;1.85;;;;;;;-2.48;98.90;98454.25;4905169;28;20040;-83
2022/12/23 10:05:31;;;;;;;4.85;1.88;;;;;;;-2.74;97.92;98382.50;4916220;28;20086;-83
2022/12/23 10:08:10;;;;;;;7.18;1.63;;;;;;;-2.63;97.75;98394.50;4904492;28;20052;-83
2022/12/23 10:11:00;;;;;;;8.55;2.15;;;;;;;-2.46;97.13;98409.09;4915620;28;20244;-83
2022/12/23 10:13:35;;;;;;;9.02;2.90;;;;;;;-2.28;97.20;98439.88;4902487;28;20045;-83
2022/12/23 10:16:27;;;;;;;8.13;1.63;;;;;;;-2.55;96.79;98391.13;4908301;28;20069;-82
2022/12/23 10:19:18;;;;;;;6.03;1.90;;;;;;;-2.61;96.85;98380.03;4909238;28;20053;-83
2022/12/23 10:21:53;;;;;;;5.90;1.45;;;;;;;-2.51;96.87;98400.53;4910959;28;20344;-83
2022/12/23 10:24:27;;;;;;;5.78;1.70;;;;;;;-2.50;97.09;98397.13;4919553;28;20052;-83
2022/12/23 10:27:01;;;;;;;3.70;1.65;;;;;;;-2.26;97.16;98453.53;4917385;28;20225;-83
2022/12/23 10:29:34;;;;;;;9.23;1.90;;;;;;;-2.23;96.59;98448.44;4917459;28;20064;-83
2022/12/23 10:32:39;;;;;;;4.70;1.67;;;;;;;-2.63;96.42;98371.47;4920415;28;20059;-81
2022/12/23 10:35:44;;;;;;;4.03;1.63;;;;;;;-2.25;96.24;98444.16;4908245;28;20040;-84
2022/12/23 10:38:29;;;;;;;9.13;2.08;;;;;;;-2.24;95.98;98410.91;4917939;28;20448;-86
2022/12/23 10:41:15;;;;;;;7.32;2.22;;;;;;;-2.39;96.37;98415.97;4905049;28;20105;-87
2022/12/23 10:44:10;;;;;;;7.03;1.80;;;;;;;-2.13;95.87;98449.34;4909623;28;20056;-85
2022/12/23 10:46:53;;;;;;;8.25;2.05;;;;;;;-2.38;95.81;98427.88;4910538;28;20109;-85
2022/12/23 10:49:33;;;;;;;7.60;2.10;;;;;;;-2.06;95.62;98445.13;4921087;28;20044;-85
2022/12/23 10:52:30;;;;;;;11.38;3.00;;;;;;;-2.07;95.56;98448.50;4898668;28;20410;-86
2022/12/23 10:55:01;;;;;;;8.98;2.05;;;;;;;-2.04;95.33;98464.75;4897808;28;20048;-87
2022/12/23 10:57:34;;;;;;;7.50;2.42;;;;;;;-2.15;95.23;98409.25;4908925;28;20045;-86
2022/12/23 11:00:17;;;;;;;4.78;2.33;;;;;;;-2.18;94.81;98445.91;4908192;28;20222;-79
2022/12/23 11:03:08;;;;;;;5.82;2.05;;;;;;;-2.54;95.07;98345.13;4901637;28;20088;-82
2022/12/23 11:06:03;;;;;;;15.65;3.03;;;;;;;-1.99;95.77;98467.34;4897409;28;20060;-82
2022/12/23 11:08:38;;;;;;;9.55;1.80;;;;;;;-2.00;95.70;98475.84;4910374;28;20112;-83
2022/12/23 11:11:10;;;;;;;8.55;2.42;;;;;;;-2.01;95.93;98469.03;4899246;28;20270;-84
2022/12/23 11:13:49;;;;;;;8.00;2.20;;;;;;;-2.00;96.12;98480.97;4910201;28;20052;-80
2022/12/23 11:16:25;;;;;;;13.18;2.17;;;;;;;-2.42;95.96;98400.56;4894774;28;20053;-83
2022/12/23 11:18:59;;;;;;;8.30;2.20;;;;;;;-2.13;96.07;98433.16;4910117;28;20075;-83
2022/12/23 11:21:32;;;;;;;8.85;1.90;;;;;;;-1.98;96.67;98466.47;4897368;28;20587;-83
2022/12/23 11:24:18;;;;;;;8.32;2.03;;;;;;;-1.99;96.77;98462.22;4906351;28;20059;-83
2022/12/23 11:26:54;;;;;;;7.50;2.40;;;;;;;-1.99;97.29;98446.88;4900297;28;20069;-82
2022/12/23 11:29:34;;;;;;;9.68;2.38;;;;;;;-2.08;97.16;98446.81;4905713;28;20053;-83
2022/12/23 11:32:29;;;;;;;8.85;2.45;;;;;;;-1.97;97.42;98470.78;4899475;28;20048;-82
2022/12/23 11:34:59;;;;;;;;;;;;;;;-1.97;97.13;98492.09;4902781;28;20055;-83
2022/12/23 11:37:54;;;;;;;12.50;2.40;;;;;;;-2.22;97.27;98439.94;4899578;28;20201;-83
2022/12/23 11:40:31;;;;;;;6.85;2.25;;;;;;;-2.14;97.85;98459.59;4900115;28;20059;-84
2022/12/23 11:43:28;;;;;;;5.57;2.28;;;;;;;-1.99;98.39;98462.22;4911654;28;20059;-83
2022/12/23 11:46:28;;;;;;;8.27;2.50;;;;;;;-2.00;99.11;98491.22;4900707;28;20142;-83
2022/12/23 11:49:16;;;;;;;10.30;1.70;;;;;;;-1.97;99.09;98475.91;4891596;28;20112;-83
2022/12/23 11:51:50;;;;;;;8.05;1.80;;;;;;;-1.93;99.17;98482.72;4893456;28;20104;-83
2022/12/23 11:54:21;;;;;;;9.88;2.00;;;;;;;-1.97;99.25;98465.66;4905728;28;20280;-84
2022/12/23 11:56:54;;;;;;;9.65;1.80;;;;;;;-2.24;99.57;98431.38;4904204;28;20079;-84
2022/12/23 11:59:56;;;;;;;11.98;2.90;;;;;;;-1.99;99.68;98492.94;4892054;28;20058;-84
2022/12/23 12:02:35;;;;;;;8.30;1.45;;;;;;;-2.35;99.13;98402.31;4897572;28;20049;-84
2022/12/23 12:05:18;;;;;;;11.68;2.17;;;;;;;-1.86;99.25;98469.09;4901992;28;20091;-84
2022/12/23 12:07:53;;;;;;;4.95;1.52;;;;;;;-1.83;98.68;98484.47;4885027;28;20076;-83
2022/12/23 12:10:29;;;;;;;9.95;2.10;;;;;;;-1.81;98.82;98472.53;4894338;28;20056;-85
2022/12/23 12:13:04;;;;;;;2.70;1.60;;;;;;;-2.02;97.93;98446.84;4889840;28;20114;-85
2022/12/23 12:15:44;;;;;;;3.67;1.40;;;;;;;-2.37;99.02;98414.28;4909152;28;20117;-85
2022/12/23 12:18:20;;;;;;;4.95;1.23;;;;;;;-2.07;98.82;98458.75;4903327;28;20063;-84
2022/12/23 12:20:59;;;;;;;3.72;1.30;;;;;;;-1.89;99.53;98501.53;4903262;28;20151;-85
2022/12/23 12:23:42;;;;;;;7.38;1.45;;;;;;;-1.75;99.58;98477.69;4898654;28;20059;-85
2022/12/23 12:26:19;;;;;;;2.70;1.20;;;;;;;-2.23;100.00;98412.63;4903544;28;20041;-87
2022/12/23 12:28:56;;;;;;;4.60;1.45;;;;;;;-2.01;98.58;98438.31;4904468;28;20095;-84
2022/12/23 12:31:34;;;;;;;8.13;2.30;;;;;;;-1.93;99.01;98446.88;4911103;28;20092;-88
2022/12/23 12:34:25;;;;;;;3.63;2.08;;;;;;;-1.84;99.59;98467.41;4913811;28;20049;-87
2022/12/23 12:37:07;;;;;;;5.63;1.48;;;;;;;-1.83;99.89;98494.72;4894247;28;20084;-86
2022/12/23 12:39:43;;;;;;;9.65;2.15;;;;;;;-1.68;100.00;98477.72;4908417;28;20324;-87
2022/12/23 12:42:17;;;;;;;9.32;1.98;;;;;;;-1.68;100.00;98493.09;4913349;28;20067;-88
2022/12/23 12:45:03;;;;;;;3.70;1.30;;;;;;;-1.67;100.00;98500.78;4903997;28;20075;-89
2022/12/23 12:47:42;;;;;;;8.35;2.38;;;;;;;-2.12;100.00;98416.94;4901693;28;20056;-87
2022/12/23 12:50:30;;;;;;;7.85;1.60;;;;;;;-1.65;100.00;98480.28;4908618;28;20059;-88
2022/12/23 12:53:11;;;;;;;6.35;1.65;;;;;;;-1.81;100.00;98476.81;4919488;28;20086;-87
2022/12/23 12:55:46;;;;;;;10.15;1.95;;;;;;;-2.13;100.00;98422.91;4919860;28;20045;-88
2022/12/23 12:58:20;;;;;;;6.43;1.27;;;;;;;-1.85;100.00;98449.47;4929533;28;20052;-88
2022/12/23 13:01:05;;;;;;;7.13;1.45;;;;;;;-1.80;100.00;98474.28;4919463;28;20082;-87
2022/12/23 13:04:01;;;;;;;10.95;1.80;;;;;;;-1.65;100.00;98511.00;4919082;28;20036;-86
2022/12/23 13:06:43;;;;;;;6.10;1.60;;;;;;;-1.62;100.00;98500.78;4908927;28;20050;-87
2022/12/23 13:09:24;;;;;;;9.85;1.90;;;;;;;-1.78;100.00;98481.94;4919216;28;20051;-88
2022/12/23 13:12:08;;;;;;;5.90;1.50;;;;;;;-1.65;100.00;98536.63;4922375;28;20424;-86
2022/12/23 13:14:54;;;;;;;13.82;2.03;;;;;;;-1.61;100.00;98494.81;4919289;28;20056;-86
2022/12/23 13:17:33;;;;;;;5.35;1.65;;;;;;;-1.57;100.00;98496.56;4918465;28;20064;-86
2022/12/23 13:20:18;;;;;;;5.93;1.50;;;;;;;-1.51;100.00;98517.06;4919213;28;20091;-86